PWSweather.com
Personal Weather Stations
Station Observations
ROSEGARDEN
Rose Garden, Brentwood, CA 94513

Rose GardenBrentwood, CA 94513

Lat: 37.967503, Lon: -121.721004

Elevation: 85

Station Type: La Crosse 2813

High Low Average
Temperature 62.6°F17.0°C 47.2°F8.4°C 53.7°F12.1°C
Dew Point 47.1°F8.4°C 37.7°F3.2°C 42.4°F5.8°C
Winds 12.1 mph 19.5 kmh Calm Calm 5.0 mph SW8.0 kmh SW
Wind Gusts 18.1 mph29.1 kmh 1.3 mph2.1 kmh 8.0 mph12.9 kmh
Humidity 75% 51% 66%
Pressure 30.06 in1017.9 mb 30.00 in1015.9 mb -
Precipitation 0.00 in0.0 mm - -
Hour Temp Dew Point Humidity Winds Wind Gusts Pressure Precip Precip Rate Daily Precip Total
12:02 AM 48.6°F9.2°C 41.0°F5.0°C 75% 1.7 mph S2.7 kmh S 4.0 mph6.4 kmh 30.00 in1015.9 mb 0.00 in0.0 mm 0.00 in/hr0.0 mm/hr 0.00 in0.0 mm
12:07 AM 48.6°F9.2°C 41.0°F5.0°C 75% 3.7 mph SSW6.0 kmh SSW 4.7 mph7.6 kmh 30.00 in1015.9 mb 0.00 in0.0 mm 0.00 in/hr0.0 mm/hr 0.00 in0.0 mm
12:12 AM 48.4°F9.1°C 41.1°F5.1°C 76% 2.8 mph SW4.5 kmh SW 4.7 mph7.6 kmh 30.00 in1015.9 mb 0.00 in0.0 mm 0.00 in/hr0.0 mm/hr 0.00 in0.0 mm
12:17 AM 48.4°F9.1°C 40.8°F4.9°C 75% 1.0 mph SSW1.6 kmh SSW 4.0 mph6.4 kmh 30.00 in1015.9 mb 0.00 in0.0 mm 0.00 in/hr0.0 mm/hr 0.00 in0.0 mm
12:22 AM 48.4°F9.1°C 40.8°F4.9°C 75% 3.0 mph SSW4.8 kmh SSW 3.8 mph6.1 kmh 30.00 in1015.9 mb 0.00 in0.0 mm 0.00 in/hr0.0 mm/hr 0.00 in0.0 mm
12:27 AM 48.4°F9.1°C 40.4°F4.7°C 74% 3.4 mph WSW5.5 kmh WSW 5.4 mph8.7 kmh 30.00 in1015.9 mb 0.00 in0.0 mm 0.00 in/hr0.0 mm/hr 0.00 in0.0 mm
12:32 AM 48.4°F9.1°C 40.4°F4.7°C 74% 3.2 mph WSW5.1 kmh WSW 6.0 mph9.7 kmh 30.00 in1015.9 mb 0.00 in0.0 mm 0.00 in/hr0.0 mm/hr 0.00 in0.0 mm
12:37 AM 48.6°F9.2°C 41.0°F5.0°C 75% 4.9 mph SSW7.9 kmh SSW 6.3 mph10.1 kmh 30.00 in1015.9 mb 0.00 in0.0 mm 0.00 in/hr0.0 mm/hr 0.00 in0.0 mm
12:42 AM 48.6°F9.2°C 40.6°F4.8°C 74% 4.3 mph WSW6.9 kmh WSW 9.6 mph15.4 kmh 30.00 in1015.9 mb 0.00 in0.0 mm 0.00 in/hr0.0 mm/hr 0.00 in0.0 mm
12:47 AM 48.6°F9.2°C 40.6°F4.8°C 74% 3.8 mph SW6.1 kmh SW 9.6 mph15.4 kmh 30.00 in1015.9 mb 0.00 in0.0 mm 0.00 in/hr0.0 mm/hr 0.00 in0.0 mm
12:53 AM 48.4°F9.1°C 40.4°F4.7°C 74% 3.5 mph SW5.6 kmh SW 4.7 mph7.6 kmh 30.00 in1015.9 mb 0.00 in0.0 mm 0.00 in/hr0.0 mm/hr 0.00 in0.0 mm
01:00 AM 48.2°F9.0°C 40.2°F4.6°C 74% 3.1 mph WSW5.0 kmh WSW 4.7 mph7.6 kmh 30.00 in1015.9 mb 0.00 in0.0 mm 0.00 in/hr0.0 mm/hr 0.00 in0.0 mm
01:05 AM 48.2°F9.0°C 39.9°F4.4°C 73% 2.9 mph WSW4.7 kmh WSW 5.4 mph8.7 kmh 30.00 in1015.9 mb 0.00 in0.0 mm 0.00 in/hr0.0 mm/hr 0.00 in0.0 mm
01:10 AM 48.1°F8.9°C 39.8°F4.3°C 73% 3.1 mph SW5.0 kmh SW 5.4 mph8.7 kmh 30.00 in1015.9 mb 0.00 in0.0 mm 0.00 in/hr0.0 mm/hr 0.00 in0.0 mm
01:16 AM 48.1°F8.9°C 40.1°F4.5°C 74% 3.3 mph WSW5.3 kmh WSW 4.7 mph7.6 kmh 30.00 in1015.9 mb 0.00 in0.0 mm 0.00 in/hr0.0 mm/hr 0.00 in0.0 mm
01:21 AM 48.1°F8.9°C 40.4°F4.7°C 75% 5.5 mph WSW8.9 kmh WSW 6.7 mph10.8 kmh 30.00 in1015.9 mb 0.00 in0.0 mm 0.00 in/hr0.0 mm/hr 0.00 in0.0 mm
01:26 AM 48.2°F9.0°C 40.6°F4.8°C 75% 6.6 mph WSW10.6 kmh WSW 8.3 mph13.4 kmh 30.00 in1015.9 mb 0.00 in0.0 mm 0.00 in/hr0.0 mm/hr 0.00 in0.0 mm
01:32 AM 48.4°F9.1°C 40.4°F4.7°C 74% 4.9 mph SW7.9 kmh SW 8.3 mph13.4 kmh 30.00 in1015.9 mb 0.00 in0.0 mm 0.00 in/hr0.0 mm/hr 0.00 in0.0 mm
01:40 AM 48.2°F9.0°C 40.6°F4.8°C 75% 4.9 mph SW7.9 kmh SW 6.7 mph10.8 kmh 30.00 in1015.9 mb 0.00 in0.0 mm 0.00 in/hr0.0 mm/hr 0.00 in0.0 mm
01:45 AM 48.2°F9.0°C 40.2°F4.6°C 74% 5.3 mph SW8.5 kmh SW 7.4 mph11.9 kmh 30.00 in1015.9 mb 0.00 in0.0 mm 0.00 in/hr0.0 mm/hr 0.00 in0.0 mm
01:50 AM 48.2°F9.0°C 40.6°F4.8°C 75% 3.2 mph SW5.1 kmh SW 7.4 mph11.9 kmh 30.00 in1015.9 mb 0.00 in0.0 mm 0.00 in/hr0.0 mm/hr 0.00 in0.0 mm
01:55 AM 48.4°F9.1°C 40.8°F4.9°C 75% 4.8 mph SW7.7 kmh SW 6.3 mph10.1 kmh 30.00 in1015.9 mb 0.00 in0.0 mm 0.00 in/hr0.0 mm/hr 0.00 in0.0 mm
02:00 AM 48.4°F9.1°C 40.8°F4.9°C 75% 4.2 mph SW6.8 kmh SW 6.3 mph10.1 kmh 30.00 in1015.9 mb 0.00 in0.0 mm 0.00 in/hr0.0 mm/hr 0.00 in0.0 mm
02:06 AM 48.4°F9.1°C 40.8°F4.9°C 75% 5.7 mph SW9.2 kmh SW 7.2 mph11.6 kmh 30.00 in1015.9 mb 0.00 in0.0 mm 0.00 in/hr0.0 mm/hr 0.00 in0.0 mm
02:11 AM 48.2°F9.0°C 40.6°F4.8°C 75% 4.6 mph SSW7.4 kmh SSW 7.4 mph11.9 kmh 30.00 in1015.9 mb 0.00 in0.0 mm 0.00 in/hr0.0 mm/hr 0.00 in0.0 mm
02:16 AM 48.4°F9.1°C 40.4°F4.7°C 74% 3.2 mph SW5.1 kmh SW 7.4 mph11.9 kmh 30.00 in1015.9 mb 0.00 in0.0 mm 0.00 in/hr0.0 mm/hr 0.00 in0.0 mm
02:21 AM 48.2°F9.0°C 40.2°F4.6°C 74% 1.8 mph SSE2.9 kmh SSE 4.7 mph7.6 kmh 30.00 in1015.9 mb 0.00 in0.0 mm 0.00 in/hr0.0 mm/hr 0.00 in0.0 mm
02:26 AM 48.2°F9.0°C 39.9°F4.4°C 73% 0.3 mph W0.5 kmh W 4.0 mph6.4 kmh 30.01 in1016.3 mb 0.00 in0.0 mm 0.00 in/hr0.0 mm/hr 0.00 in0.0 mm
02:31 AM 48.2°F9.0°C 39.9°F4.4°C 73% 0.6 mph ESE1.0 kmh ESE 4.3 mph6.9 kmh 30.01 in1016.3 mb 0.00 in0.0 mm 0.00 in/hr0.0 mm/hr 0.00 in0.0 mm
02:36 AM 48.1°F8.9°C 39.8°F4.3°C 73% 0.4 mph SSE0.6 kmh SSE 4.3 mph6.9 kmh 30.01 in1016.3 mb 0.00 in0.0 mm 0.00 in/hr0.0 mm/hr 0.00 in0.0 mm
02:41 AM 47.9°F8.8°C 39.2°F4.0°C 72% 0.3 mph SSE0.5 kmh SSE 1.3 mph2.1 kmh 30.01 in1016.3 mb 0.00 in0.0 mm 0.00 in/hr0.0 mm/hr 0.00 in0.0 mm
02:46 AM 47.9°F8.8°C 39.6°F4.2°C 73% 1.2 mph SE1.9 kmh SE 1.8 mph2.9 kmh 30.01 in1016.3 mb 0.00 in0.0 mm 0.00 in/hr0.0 mm/hr 0.00 in0.0 mm
02:52 AM 47.5°F8.6°C 39.2°F4.0°C 73% 0.3 mph E0.5 kmh E 1.8 mph2.9 kmh 30.01 in1016.3 mb 0.00 in0.0 mm 0.00 in/hr0.0 mm/hr 0.00 in0.0 mm
02:57 AM 47.3°F8.5°C 39.1°F3.9°C 73% 0.7 mph SE1.1 kmh SE 1.3 mph2.1 kmh 30.01 in1016.3 mb 0.00 in0.0 mm 0.00 in/hr0.0 mm/hr 0.00 in0.0 mm
03:02 AM 47.3°F8.5°C 39.1°F3.9°C 73% 0.7 mph WSW1.1 kmh WSW 1.3 mph2.1 kmh 30.01 in1016.3 mb 0.00 in0.0 mm 0.00 in/hr0.0 mm/hr 0.00 in0.0 mm
03:07 AM 47.2°F8.4°C 39.0°F3.9°C 73% Calm Calm 1.3 mph2.1 kmh 30.00 in1015.9 mb 0.00 in0.0 mm 0.00 in/hr0.0 mm/hr 0.00 in0.0 mm
03:12 AM 47.2°F8.4°C 39.2°F4.0°C 74% 3.7 mph WSW6.0 kmh WSW 5.4 mph8.7 kmh 30.00 in1015.9 mb 0.00 in0.0 mm 0.00 in/hr0.0 mm/hr 0.00 in0.0 mm
03:17 AM 47.3°F8.5°C 39.1°F3.9°C 73% 2.3 mph WSW3.7 kmh WSW 6.5 mph10.5 kmh 30.01 in1016.3 mb 0.00 in0.0 mm 0.00 in/hr0.0 mm/hr 0.00 in0.0 mm
03:22 AM 47.7°F8.7°C 39.1°F3.9°C 72% 0.7 mph W1.1 kmh W 6.5 mph10.5 kmh 30.01 in1016.3 mb 0.00 in0.0 mm 0.00 in/hr0.0 mm/hr 0.00 in0.0 mm
03:27 AM 47.7°F8.7°C 39.1°F3.9°C 72% 0.5 mph W0.8 kmh W 2.5 mph4.0 kmh 30.01 in1016.3 mb 0.00 in0.0 mm 0.00 in/hr0.0 mm/hr 0.00 in0.0 mm
03:32 AM 47.7°F8.7°C 39.1°F3.9°C 72% 1.1 mph N1.8 kmh N 1.8 mph2.9 kmh 30.01 in1016.3 mb 0.00 in0.0 mm 0.00 in/hr0.0 mm/hr 0.00 in0.0 mm
03:37 AM 47.9°F8.8°C 38.5°F3.6°C 70% 3.9 mph WSW6.3 kmh WSW 6.9 mph11.1 kmh 30.01 in1016.3 mb 0.00 in0.0 mm 0.00 in/hr0.0 mm/hr 0.00 in0.0 mm
03:42 AM 48.2°F9.0°C 38.2°F3.4°C 68% 4.5 mph WSW7.2 kmh WSW 6.9 mph11.1 kmh 30.01 in1016.3 mb 0.00 in0.0 mm 0.00 in/hr0.0 mm/hr 0.00 in0.0 mm
03:47 AM 48.6°F9.2°C 37.7°F3.2°C 66% 6.8 mph WSW10.9 kmh WSW 8.1 mph13.0 kmh 30.00 in1015.9 mb 0.00 in0.0 mm 0.00 in/hr0.0 mm/hr 0.00 in0.0 mm
03:52 AM 49.0°F9.4°C 38.1°F3.4°C 66% 7.7 mph WSW12.4 kmh WSW 12.3 mph19.8 kmh 30.00 in1015.9 mb 0.00 in0.0 mm 0.00 in/hr0.0 mm/hr 0.00 in0.0 mm
03:57 AM 49.3°F9.6°C 38.0°F3.3°C 65% 9.5 mph WSW15.3 kmh WSW 12.8 mph20.6 kmh 30.00 in1015.9 mb 0.00 in0.0 mm 0.00 in/hr0.0 mm/hr 0.00 in0.0 mm
04:02 AM 49.5°F9.7°C 38.2°F3.4°C 65% 5.8 mph SW9.3 kmh SW 12.8 mph20.6 kmh 30.00 in1015.9 mb 0.00 in0.0 mm 0.00 in/hr0.0 mm/hr 0.00 in0.0 mm
04:07 AM 49.7°F9.8°C 38.3°F3.5°C 65% 5.3 mph WSW8.5 kmh WSW 12.8 mph20.6 kmh 30.01 in1016.3 mb 0.00 in0.0 mm 0.00 in/hr0.0 mm/hr 0.00 in0.0 mm
04:12 AM 49.7°F9.8°C 38.3°F3.5°C 65% 4.3 mph WNW6.9 kmh WNW 11.4 mph18.3 kmh 30.00 in1015.9 mb 0.00 in0.0 mm 0.00 in/hr0.0 mm/hr 0.00 in0.0 mm
04:17 AM 49.7°F9.8°C 38.3°F3.5°C 65% 8.4 mph WSW13.5 kmh WSW 11.4 mph18.3 kmh 30.00 in1015.9 mb 0.00 in0.0 mm 0.00 in/hr0.0 mm/hr 0.00 in0.0 mm
04:22 AM 49.7°F9.8°C 38.3°F3.5°C 65% 10.2 mph WSW16.4 kmh WSW 13.9 mph22.4 kmh 30.00 in1015.9 mb 0.00 in0.0 mm 0.00 in/hr0.0 mm/hr 0.00 in0.0 mm
04:27 AM 49.9°F9.9°C 38.9°F3.8°C 66% 8.1 mph W13.0 kmh W 13.9 mph22.4 kmh 30.00 in1015.9 mb 0.00 in0.0 mm 0.00 in/hr0.0 mm/hr 0.00 in0.0 mm
04:32 AM 49.9°F9.9°C 38.9°F3.8°C 66% 7.3 mph WSW11.7 kmh WSW 11.4 mph18.3 kmh 30.00 in1015.9 mb 0.00 in0.0 mm 0.00 in/hr0.0 mm/hr 0.00 in0.0 mm
04:38 AM 49.7°F9.8°C 38.8°F3.8°C 66% 5.7 mph WSW9.2 kmh WSW 9.8 mph15.8 kmh 30.00 in1015.9 mb 0.00 in0.0 mm 0.00 in/hr0.0 mm/hr 0.00 in0.0 mm
04:43 AM 49.7°F9.8°C 38.8°F3.8°C 66% 6.5 mph WSW10.5 kmh WSW 8.5 mph13.7 kmh 30.00 in1015.9 mb 0.00 in0.0 mm 0.00 in/hr0.0 mm/hr 0.00 in0.0 mm
04:48 AM 49.7°F9.8°C 39.2°F4.0°C 67% 5.8 mph WSW9.3 kmh WSW 8.7 mph14.0 kmh 30.00 in1015.9 mb 0.00 in0.0 mm 0.00 in/hr0.0 mm/hr 0.00 in0.0 mm
04:53 AM 49.7°F9.8°C 39.2°F4.0°C 67% 6.5 mph WSW10.5 kmh WSW 8.7 mph14.0 kmh 30.00 in1015.9 mb 0.00 in0.0 mm 0.00 in/hr0.0 mm/hr 0.00 in0.0 mm
04:58 AM 49.9°F9.9°C 38.9°F3.8°C 66% 5.7 mph WSW9.2 kmh WSW 8.3 mph13.4 kmh 30.00 in1015.9 mb 0.00 in0.0 mm 0.00 in/hr0.0 mm/hr 0.00 in0.0 mm
05:04 AM 49.9°F9.9°C 38.9°F3.8°C 66% 3.5 mph SW5.6 kmh SW 6.5 mph10.5 kmh 30.00 in1015.9 mb 0.00 in0.0 mm 0.00 in/hr0.0 mm/hr 0.00 in0.0 mm
05:09 AM 49.9°F9.9°C 39.3°F4.1°C 67% 2.6 mph S4.2 kmh S 6.5 mph10.5 kmh 30.00 in1015.9 mb 0.00 in0.0 mm 0.00 in/hr0.0 mm/hr 0.00 in0.0 mm
05:14 AM 49.7°F9.8°C 39.2°F4.0°C 67% 1.8 mph SSE2.9 kmh SSE 4.7 mph7.6 kmh 30.00 in1015.9 mb 0.00 in0.0 mm 0.00 in/hr0.0 mm/hr 0.00 in0.0 mm
05:19 AM 49.5°F9.7°C 39.3°F4.1°C 68% 2.2 mph S3.5 kmh S 4.7 mph7.6 kmh 30.00 in1015.9 mb 0.00 in0.0 mm 0.00 in/hr0.0 mm/hr 0.00 in0.0 mm
05:24 AM 49.5°F9.7°C 39.8°F4.3°C 69% 2.3 mph SW3.7 kmh SW 4.0 mph6.4 kmh 30.00 in1015.9 mb 0.00 in0.0 mm 0.00 in/hr0.0 mm/hr 0.00 in0.0 mm
05:29 AM 49.3°F9.6°C 39.2°F4.0°C 68% 1.8 mph SW2.9 kmh SW 3.6 mph5.8 kmh 30.01 in1016.3 mb 0.00 in0.0 mm 0.00 in/hr0.0 mm/hr 0.00 in0.0 mm
05:34 AM 49.3°F9.6°C 39.2°F4.0°C 68% 2.6 mph SW4.2 kmh SW 4.7 mph7.6 kmh 30.01 in1016.3 mb 0.00 in0.0 mm 0.00 in/hr0.0 mm/hr 0.00 in0.0 mm
05:39 AM 49.3°F9.6°C 39.2°F4.0°C 68% 2.5 mph W4.0 kmh W 4.7 mph7.6 kmh 30.01 in1016.3 mb 0.00 in0.0 mm 0.00 in/hr0.0 mm/hr 0.00 in0.0 mm
05:44 AM 49.3°F9.6°C 39.2°F4.0°C 68% 5.6 mph W9.0 kmh W 6.7 mph10.8 kmh 30.01 in1016.3 mb 0.00 in0.0 mm 0.00 in/hr0.0 mm/hr 0.00 in0.0 mm
05:49 AM 49.5°F9.7°C 39.3°F4.1°C 68% 6.4 mph W10.3 kmh W 10.1 mph16.3 kmh 30.01 in1016.3 mb 0.00 in0.0 mm 0.00 in/hr0.0 mm/hr 0.00 in0.0 mm
05:55 AM 49.7°F9.8°C 39.5°F4.2°C 68% 6.1 mph WSW9.8 kmh WSW 10.1 mph16.3 kmh 30.01 in1016.3 mb 0.00 in0.0 mm 0.00 in/hr0.0 mm/hr 0.00 in0.0 mm
06:00 AM 49.9°F9.9°C 39.7°F4.3°C 68% 7.2 mph WSW11.6 kmh WSW 8.5 mph13.7 kmh 30.01 in1016.3 mb 0.00 in0.0 mm 0.00 in/hr0.0 mm/hr 0.00 in0.0 mm
06:05 AM 49.9°F9.9°C 39.7°F4.3°C 68% 7.7 mph WSW12.4 kmh WSW 9.6 mph15.4 kmh 30.01 in1016.3 mb 0.00 in0.0 mm 0.00 in/hr0.0 mm/hr 0.00 in0.0 mm
06:10 AM 50.0°F10.0°C 39.9°F4.4°C 68% 4.6 mph WSW7.4 kmh WSW 9.6 mph15.4 kmh 30.01 in1016.3 mb 0.00 in0.0 mm 0.00 in/hr0.0 mm/hr 0.00 in0.0 mm
06:15 AM 50.0°F10.0°C 39.9°F4.4°C 68% 4.3 mph WSW6.9 kmh WSW 7.2 mph11.6 kmh 30.01 in1016.3 mb 0.00 in0.0 mm 0.00 in/hr0.0 mm/hr 0.00 in0.0 mm
06:20 AM 49.9°F9.9°C 40.2°F4.6°C 69% 4.0 mph SW6.4 kmh SW 7.2 mph11.6 kmh 30.01 in1016.3 mb 0.00 in0.0 mm 0.00 in/hr0.0 mm/hr 0.00 in0.0 mm
06:25 AM 49.7°F9.8°C 39.5°F4.2°C 68% 2.8 mph SW4.5 kmh SW 4.7 mph7.6 kmh 30.01 in1016.3 mb 0.00 in0.0 mm 0.00 in/hr0.0 mm/hr 0.00 in0.0 mm
06:30 AM 49.5°F9.7°C 39.3°F4.1°C 68% 2.8 mph SW4.5 kmh SW 3.8 mph6.1 kmh 30.01 in1016.3 mb 0.00 in0.0 mm 0.00 in/hr0.0 mm/hr 0.00 in0.0 mm
06:35 AM 49.5°F9.7°C 39.3°F4.1°C 68% 1.5 mph SW2.4 kmh SW 3.4 mph5.5 kmh 30.01 in1016.3 mb 0.00 in0.0 mm 0.00 in/hr0.0 mm/hr 0.00 in0.0 mm
06:40 AM 49.3°F9.6°C 40.0°F4.4°C 70% 2.3 mph SW3.7 kmh SW 3.4 mph5.5 kmh 30.01 in1016.3 mb 0.00 in0.0 mm 0.00 in/hr0.0 mm/hr 0.00 in0.0 mm
06:45 AM 49.3°F9.6°C 40.3°F4.6°C 71% 2.0 mph S3.2 kmh S 2.9 mph4.7 kmh 30.01 in1016.3 mb 0.00 in0.0 mm 0.00 in/hr0.0 mm/hr 0.00 in0.0 mm
06:50 AM 49.3°F9.6°C 40.3°F4.6°C 71% 1.3 mph SW2.1 kmh SW 2.7 mph4.3 kmh 30.01 in1016.3 mb 0.00 in0.0 mm 0.00 in/hr0.0 mm/hr 0.00 in0.0 mm
06:56 AM 49.3°F9.6°C 40.0°F4.4°C 70% 1.9 mph SW3.1 kmh SW 2.9 mph4.7 kmh 30.01 in1016.3 mb 0.00 in0.0 mm 0.00 in/hr0.0 mm/hr 0.00 in0.0 mm
07:01 AM 49.3°F9.6°C 40.0°F4.4°C 70% 1.9 mph WSW3.1 kmh WSW 3.1 mph5.0 kmh 30.01 in1016.3 mb 0.00 in0.0 mm 0.00 in/hr0.0 mm/hr 0.00 in0.0 mm
07:06 AM 49.3°F9.6°C 40.3°F4.6°C 71% 1.8 mph WSW2.9 kmh WSW 3.1 mph5.0 kmh 30.02 in1016.6 mb 0.00 in0.0 mm 0.00 in/hr0.0 mm/hr 0.00 in0.0 mm
07:11 AM 49.3°F9.6°C 40.3°F4.6°C 71% 5.8 mph W9.3 kmh W 6.9 mph11.1 kmh 30.02 in1016.6 mb 0.00 in0.0 mm 0.00 in/hr0.0 mm/hr 0.00 in0.0 mm
07:16 AM 49.7°F9.8°C 40.3°F4.6°C 70% 6.5 mph W10.5 kmh W 9.6 mph15.4 kmh 30.02 in1016.6 mb 0.00 in0.0 mm 0.00 in/hr0.0 mm/hr 0.00 in0.0 mm
07:21 AM 49.9°F9.9°C 40.5°F4.7°C 70% 5.6 mph SW9.0 kmh SW 9.6 mph15.4 kmh 30.02 in1016.6 mb 0.00 in0.0 mm 0.00 in/hr0.0 mm/hr 0.00 in0.0 mm
07:27 AM 49.9°F9.9°C 40.5°F4.7°C 70% 5.8 mph WSW9.3 kmh WSW 9.6 mph15.4 kmh 30.02 in1016.6 mb 0.00 in0.0 mm 0.00 in/hr0.0 mm/hr 0.00 in0.0 mm
07:32 AM 50.0°F10.0°C 40.3°F4.6°C 69% 4.9 mph WSW7.9 kmh WSW 8.7 mph14.0 kmh 30.02 in1016.6 mb 0.00 in0.0 mm 0.00 in/hr0.0 mm/hr 0.00 in0.0 mm
07:37 AM 50.0°F10.0°C 40.7°F4.8°C 70% 3.3 mph SW5.3 kmh SW 7.8 mph12.6 kmh 30.02 in1016.6 mb 0.00 in0.0 mm 0.00 in/hr0.0 mm/hr 0.00 in0.0 mm
07:42 AM 49.9°F9.9°C 40.5°F4.7°C 70% 3.4 mph SW5.5 kmh SW 5.8 mph9.3 kmh 30.02 in1016.6 mb 0.00 in0.0 mm 0.00 in/hr0.0 mm/hr 0.00 in0.0 mm
07:47 AM 49.9°F9.9°C 40.5°F4.7°C 70% 3.7 mph SW6.0 kmh SW 6.3 mph10.1 kmh 30.02 in1016.6 mb 0.00 in0.0 mm 0.00 in/hr0.0 mm/hr 0.00 in0.0 mm
07:52 AM 49.9°F9.9°C 40.9°F4.9°C 71% 2.4 mph SW3.9 kmh SW 6.3 mph10.1 kmh 30.02 in1016.6 mb 0.00 in0.0 mm 0.00 in/hr0.0 mm/hr 0.00 in0.0 mm
07:56 AM 50.0°F10.0°C 41.1°F5.1°C 71% 3.5 mph SW5.6 kmh SW 5.4 mph8.7 kmh 30.02 in1016.6 mb 0.00 in0.0 mm 0.00 in/hr0.0 mm/hr 0.00 in0.0 mm
08:01 AM 50.0°F10.0°C 40.7°F4.8°C 70% 1.8 mph SW2.9 kmh SW 4.7 mph7.6 kmh 30.02 in1016.6 mb 0.00 in0.0 mm 0.00 in/hr0.0 mm/hr 0.00 in0.0 mm
08:06 AM 50.0°F10.0°C 40.7°F4.8°C 70% 3.1 mph SW5.0 kmh SW 6.3 mph10.1 kmh 30.03 in1016.9 mb 0.00 in0.0 mm 0.00 in/hr0.0 mm/hr 0.00 in0.0 mm
08:11 AM 50.2°F10.1°C 41.2°F5.1°C 71% 1.7 mph S2.7 kmh S 6.3 mph10.1 kmh 30.03 in1016.9 mb 0.00 in0.0 mm 0.00 in/hr0.0 mm/hr 0.00 in0.0 mm
08:17 AM 50.2°F10.1°C 40.9°F4.9°C 70% 1.8 mph SW2.9 kmh SW 4.5 mph7.2 kmh 30.03 in1016.9 mb 0.00 in0.0 mm 0.00 in/hr0.0 mm/hr 0.00 in0.0 mm
08:22 AM 50.4°F10.2°C 41.0°F5.0°C 70% 2.4 mph SW3.9 kmh SW 4.5 mph7.2 kmh 30.03 in1016.9 mb 0.00 in0.0 mm 0.00 in/hr0.0 mm/hr 0.00 in0.0 mm
08:27 AM 50.6°F10.3°C 41.2°F5.1°C 70% 1.4 mph SW2.3 kmh SW 2.7 mph4.3 kmh 30.03 in1016.9 mb 0.00 in0.0 mm 0.00 in/hr0.0 mm/hr 0.00 in0.0 mm
08:32 AM 50.6°F10.3°C 41.2°F5.1°C 70% 0.8 mph SSW1.3 kmh SSW 2.2 mph3.5 kmh 30.03 in1016.9 mb 0.00 in0.0 mm 0.00 in/hr0.0 mm/hr 0.00 in0.0 mm
08:37 AM 50.8°F10.4°C 41.4°F5.2°C 70% 1.5 mph S2.4 kmh S 2.0 mph3.2 kmh 30.04 in1017.3 mb 0.00 in0.0 mm 0.00 in/hr0.0 mm/hr 0.00 in0.0 mm
08:42 AM 50.8°F10.4°C 41.4°F5.2°C 70% 1.4 mph SE2.3 kmh SE 3.4 mph5.5 kmh 30.04 in1017.3 mb 0.00 in0.0 mm 0.00 in/hr0.0 mm/hr 0.00 in0.0 mm
08:47 AM 50.9°F10.5°C 41.2°F5.1°C 69% 1.2 mph SSE1.9 kmh SSE 3.4 mph5.5 kmh 30.04 in1017.3 mb 0.00 in0.0 mm 0.00 in/hr0.0 mm/hr 0.00 in0.0 mm
08:52 AM 51.3°F10.7°C 41.5°F5.3°C 69% 1.2 mph SE1.9 kmh SE 2.5 mph4.0 kmh 30.04 in1017.3 mb 0.00 in0.0 mm 0.00 in/hr0.0 mm/hr 0.00 in0.0 mm
08:57 AM 51.5°F10.8°C 41.7°F5.4°C 69% 2.2 mph SE3.5 kmh SE 3.6 mph5.8 kmh 30.04 in1017.3 mb 0.00 in0.0 mm 0.00 in/hr0.0 mm/hr 0.00 in0.0 mm
09:02 AM 51.8°F11.0°C 42.0°F5.6°C 69% 2.0 mph SE3.2 kmh SE 4.3 mph6.9 kmh 30.04 in1017.3 mb 0.00 in0.0 mm 0.00 in/hr0.0 mm/hr 0.00 in0.0 mm
09:07 AM 52.2°F11.2°C 42.4°F5.8°C 69% 3.2 mph SSE5.1 kmh SSE 4.3 mph6.9 kmh 30.04 in1017.3 mb 0.00 in0.0 mm 0.00 in/hr0.0 mm/hr 0.00 in0.0 mm
09:12 AM 52.4°F11.3°C 42.6°F5.9°C 69% 1.5 mph SE2.4 kmh SE 3.8 mph6.1 kmh 30.04 in1017.3 mb 0.00 in0.0 mm 0.00 in/hr0.0 mm/hr 0.00 in0.0 mm
09:17 AM 52.6°F11.4°C 42.8°F6.0°C 69% 1.5 mph SE2.4 kmh SE 3.4 mph5.5 kmh 30.04 in1017.3 mb 0.00 in0.0 mm 0.00 in/hr0.0 mm/hr 0.00 in0.0 mm
09:22 AM 52.9°F11.6°C 43.0°F6.1°C 69% 4.7 mph SW7.6 kmh SW 6.3 mph10.1 kmh 30.04 in1017.3 mb 0.00 in0.0 mm 0.00 in/hr0.0 mm/hr 0.00 in0.0 mm
09:27 AM 53.1°F11.7°C 42.9°F6.1°C 68% 3.5 mph SW5.6 kmh SW 6.3 mph10.1 kmh 30.04 in1017.3 mb 0.00 in0.0 mm 0.00 in/hr0.0 mm/hr 0.00 in0.0 mm
09:32 AM 53.5°F11.9°C 43.1°F6.2°C 68% 2.3 mph S3.7 kmh S 6.3 mph10.1 kmh 30.05 in1017.6 mb 0.00 in0.0 mm 0.00 in/hr0.0 mm/hr 0.00 in0.0 mm
09:37 AM 53.8°F12.1°C 43.5°F6.4°C 68% 3.4 mph S5.5 kmh S 5.6 mph9.0 kmh 30.04 in1017.3 mb 0.00 in0.0 mm 0.00 in/hr0.0 mm/hr 0.00 in0.0 mm
09:42 AM 54.0°F12.2°C 43.3°F6.3°C 67% 2.5 mph WSW4.0 kmh WSW 5.6 mph9.0 kmh 30.05 in1017.6 mb 0.00 in0.0 mm 0.00 in/hr0.0 mm/hr 0.00 in0.0 mm
09:47 AM 54.2°F12.3°C 43.5°F6.4°C 67% 3.4 mph S5.5 kmh S 5.1 mph8.2 kmh 30.05 in1017.6 mb 0.00 in0.0 mm 0.00 in/hr0.0 mm/hr 0.00 in0.0 mm
09:53 AM 54.4°F12.4°C 43.7°F6.5°C 67% 4.1 mph SSE6.6 kmh SSE 5.4 mph8.7 kmh 30.05 in1017.6 mb 0.00 in0.0 mm 0.00 in/hr0.0 mm/hr 0.00 in0.0 mm
09:58 AM 54.4°F12.4°C 43.2°F6.2°C 66% 3.4 mph SSE5.5 kmh SSE 5.4 mph8.7 kmh 30.05 in1017.6 mb 0.00 in0.0 mm 0.00 in/hr0.0 mm/hr 0.00 in0.0 mm
10:03 AM 54.4°F12.4°C 43.7°F6.5°C 67% 5.6 mph SSE9.0 kmh SSE 6.9 mph11.1 kmh 30.05 in1017.6 mb 0.00 in0.0 mm 0.00 in/hr0.0 mm/hr 0.00 in0.0 mm
10:08 AM 54.4°F12.4°C 43.7°F6.5°C 67% 4.8 mph S7.7 kmh S 6.9 mph11.1 kmh 30.05 in1017.6 mb 0.00 in0.0 mm 0.00 in/hr0.0 mm/hr 0.00 in0.0 mm
10:13 AM 54.4°F12.4°C 43.2°F6.2°C 66% 2.7 mph S4.3 kmh S 6.5 mph10.5 kmh 30.05 in1017.6 mb 0.00 in0.0 mm 0.00 in/hr0.0 mm/hr 0.00 in0.0 mm
10:18 AM 54.7°F12.6°C 43.6°F6.4°C 66% 3.2 mph S5.1 kmh S 6.0 mph9.7 kmh 30.05 in1017.6 mb 0.00 in0.0 mm 0.00 in/hr0.0 mm/hr 0.00 in0.0 mm
10:23 AM 54.9°F12.7°C 43.8°F6.6°C 66% 3.2 mph SSW5.1 kmh SSW 6.0 mph9.7 kmh 30.05 in1017.6 mb 0.00 in0.0 mm 0.00 in/hr0.0 mm/hr 0.00 in0.0 mm
10:28 AM 55.3°F12.9°C 43.7°F6.5°C 65% 3.3 mph SSW5.3 kmh SSW 4.7 mph7.6 kmh 30.05 in1017.6 mb 0.00 in0.0 mm 0.00 in/hr0.0 mm/hr 0.00 in0.0 mm
10:33 AM 56.0°F13.3°C 43.9°F6.6°C 64% 4.5 mph S7.2 kmh S 6.3 mph10.1 kmh 30.05 in1017.6 mb 0.00 in0.0 mm 0.00 in/hr0.0 mm/hr 0.00 in0.0 mm
10:38 AM 56.5°F13.6°C 44.0°F6.7°C 63% 2.8 mph SW4.5 kmh SW 7.2 mph11.6 kmh 30.05 in1017.6 mb 0.00 in0.0 mm 0.00 in/hr0.0 mm/hr 0.00 in0.0 mm
10:43 AM 56.5°F13.6°C 44.0°F6.7°C 63% 4.7 mph SW7.6 kmh SW 7.2 mph11.6 kmh 30.05 in1017.6 mb 0.00 in0.0 mm 0.00 in/hr0.0 mm/hr 0.00 in0.0 mm
10:48 AM 56.9°F13.8°C 44.0°F6.7°C 62% 4.4 mph SW7.1 kmh SW 7.8 mph12.6 kmh 30.06 in1017.9 mb 0.00 in0.0 mm 0.00 in/hr0.0 mm/hr 0.00 in0.0 mm
10:53 AM 57.2°F14.0°C 44.4°F6.9°C 62% 3.8 mph SW6.1 kmh SW 7.8 mph12.6 kmh 30.06 in1017.9 mb 0.00 in0.0 mm 0.00 in/hr0.0 mm/hr 0.00 in0.0 mm
10:58 AM 57.6°F14.2°C 44.3°F6.8°C 61% 2.9 mph SW4.7 kmh SW 7.8 mph12.6 kmh 30.06 in1017.9 mb 0.00 in0.0 mm 0.00 in/hr0.0 mm/hr 0.00 in0.0 mm
11:03 AM 58.3°F14.6°C 44.9°F7.2°C 61% 5.0 mph WSW8.0 kmh WSW 6.5 mph10.5 kmh 30.06 in1017.9 mb 0.00 in0.0 mm 0.00 in/hr0.0 mm/hr 0.00 in0.0 mm
11:08 AM 59.0°F15.0°C 45.6°F7.6°C 61% 4.9 mph WSW7.9 kmh WSW 7.6 mph12.2 kmh 30.06 in1017.9 mb 0.00 in0.0 mm 0.00 in/hr0.0 mm/hr 0.00 in0.0 mm
11:13 AM 59.4°F15.2°C 45.1°F7.3°C 59% 2.6 mph SW4.2 kmh SW 7.6 mph12.2 kmh 30.06 in1017.9 mb 0.00 in0.0 mm 0.00 in/hr0.0 mm/hr 0.00 in0.0 mm
11:18 AM 59.0°F15.0°C 44.7°F7.1°C 59% 1.5 mph WNW2.4 kmh WNW 4.3 mph6.9 kmh 30.06 in1017.9 mb 0.00 in0.0 mm 0.00 in/hr0.0 mm/hr 0.00 in0.0 mm
11:23 AM 59.2°F15.1°C 44.9°F7.2°C 59% 2.8 mph SW4.5 kmh SW 6.0 mph9.7 kmh 30.06 in1017.9 mb 0.00 in0.0 mm 0.00 in/hr0.0 mm/hr 0.00 in0.0 mm
11:28 AM 59.2°F15.1°C 44.9°F7.2°C 59% 3.0 mph SSW4.8 kmh SSW 6.0 mph9.7 kmh 30.06 in1017.9 mb 0.00 in0.0 mm 0.00 in/hr0.0 mm/hr 0.00 in0.0 mm
11:33 AM 59.2°F15.1°C 44.5°F6.9°C 58% 9.6 mph W15.4 kmh W 12.8 mph20.6 kmh 30.06 in1017.9 mb 0.00 in0.0 mm 0.00 in/hr0.0 mm/hr 0.00 in0.0 mm
11:38 AM 59.2°F15.1°C 44.5°F6.9°C 58% 6.9 mph WSW11.1 kmh WSW 15.0 mph24.1 kmh 30.05 in1017.6 mb 0.00 in0.0 mm 0.00 in/hr0.0 mm/hr 0.00 in0.0 mm
11:43 AM 59.4°F15.2°C 45.1°F7.3°C 59% 6.7 mph WSW10.8 kmh WSW 15.0 mph24.1 kmh 30.05 in1017.6 mb 0.00 in0.0 mm 0.00 in/hr0.0 mm/hr 0.00 in0.0 mm
11:48 AM 59.6°F15.3°C 44.7°F7.1°C 58% 4.9 mph WNW7.9 kmh WNW 11.6 mph18.7 kmh 30.05 in1017.6 mb 0.00 in0.0 mm 0.00 in/hr0.0 mm/hr 0.00 in0.0 mm
11:53 AM 59.8°F15.4°C 44.9°F7.2°C 58% 4.6 mph SW7.4 kmh SW 18.1 mph29.1 kmh 30.05 in1017.6 mb 0.00 in0.0 mm 0.00 in/hr0.0 mm/hr 0.00 in0.0 mm
11:58 AM 60.1°F15.6°C 45.3°F7.4°C 58% 1.6 mph SW2.6 kmh SW 18.1 mph29.1 kmh 30.05 in1017.6 mb 0.00 in0.0 mm 0.00 in/hr0.0 mm/hr 0.00 in0.0 mm
12:03 PM 60.1°F15.6°C 44.8°F7.1°C 57% 7.5 mph W12.1 kmh W 12.1 mph19.5 kmh 30.05 in1017.6 mb 0.00 in0.0 mm 0.00 in/hr0.0 mm/hr 0.00 in0.0 mm
12:08 PM 59.6°F15.3°C 44.7°F7.1°C 58% 5.9 mph WSW9.5 kmh WSW 12.1 mph19.5 kmh 30.05 in1017.6 mb 0.00 in0.0 mm 0.00 in/hr0.0 mm/hr 0.00 in0.0 mm
12:13 PM 59.4°F15.2°C 45.1°F7.3°C 59% 8.9 mph WSW14.3 kmh WSW 14.1 mph22.7 kmh 30.05 in1017.6 mb 0.00 in0.0 mm 0.00 in/hr0.0 mm/hr 0.00 in0.0 mm
12:18 PM 59.2°F15.1°C 44.9°F7.2°C 59% 9.4 mph WSW15.1 kmh WSW 14.1 mph22.7 kmh 30.05 in1017.6 mb 0.00 in0.0 mm 0.00 in/hr0.0 mm/hr 0.00 in0.0 mm
12:23 PM 59.4°F15.2°C 45.5°F7.5°C 60% 9.5 mph W15.3 kmh W 14.1 mph22.7 kmh 30.05 in1017.6 mb 0.00 in0.0 mm 0.00 in/hr0.0 mm/hr 0.00 in0.0 mm
12:28 PM 59.4°F15.2°C 45.5°F7.5°C 60% 6.5 mph SW10.5 kmh SW 14.1 mph22.7 kmh 30.05 in1017.6 mb 0.00 in0.0 mm 0.00 in/hr0.0 mm/hr 0.00 in0.0 mm
12:33 PM 59.4°F15.2°C 45.1°F7.3°C 59% 8.2 mph W13.2 kmh W 14.1 mph22.7 kmh 30.05 in1017.6 mb 0.00 in0.0 mm 0.00 in/hr0.0 mm/hr 0.00 in0.0 mm
12:38 PM 59.4°F15.2°C 45.5°F7.5°C 60% 7.2 mph WSW11.6 kmh WSW 11.2 mph18.0 kmh 30.05 in1017.6 mb 0.00 in0.0 mm 0.00 in/hr0.0 mm/hr 0.00 in0.0 mm
12:43 PM 59.4°F15.2°C 45.5°F7.5°C 60% 8.8 mph WSW14.2 kmh WSW 12.5 mph20.1 kmh 30.05 in1017.6 mb 0.00 in0.0 mm 0.00 in/hr0.0 mm/hr 0.00 in0.0 mm
12:48 PM 59.4°F15.2°C 45.5°F7.5°C 60% 5.3 mph WNW8.5 kmh WNW 12.5 mph20.1 kmh 30.05 in1017.6 mb 0.00 in0.0 mm 0.00 in/hr0.0 mm/hr 0.00 in0.0 mm
12:52 PM 59.4°F15.2°C 46.0°F7.8°C 61% 4.8 mph WNW7.7 kmh WNW 12.5 mph20.1 kmh 30.05 in1017.6 mb 0.00 in0.0 mm 0.00 in/hr0.0 mm/hr 0.00 in0.0 mm
12:57 PM 59.4°F15.2°C 46.0°F7.8°C 61% 5.8 mph WSW9.3 kmh WSW 9.6 mph15.4 kmh 30.05 in1017.6 mb 0.00 in0.0 mm 0.00 in/hr0.0 mm/hr 0.00 in0.0 mm
01:02 PM 59.6°F15.3°C 46.2°F7.9°C 61% 6.4 mph WSW10.3 kmh WSW 9.8 mph15.8 kmh 30.05 in1017.6 mb 0.00 in0.0 mm 0.00 in/hr0.0 mm/hr 0.00 in0.0 mm
01:07 PM 59.4°F15.2°C 46.0°F7.8°C 61% 6.2 mph WSW10.0 kmh WSW 9.8 mph15.8 kmh 30.05 in1017.6 mb 0.00 in0.0 mm 0.00 in/hr0.0 mm/hr 0.00 in0.0 mm
01:12 PM 59.4°F15.2°C 46.0°F7.8°C 61% 6.9 mph W11.1 kmh W 10.3 mph16.6 kmh 30.05 in1017.6 mb 0.00 in0.0 mm 0.00 in/hr0.0 mm/hr 0.00 in0.0 mm
01:17 PM 59.2°F15.1°C 46.2°F7.9°C 62% 5.7 mph W9.2 kmh W 10.3 mph16.6 kmh 30.05 in1017.6 mb 0.00 in0.0 mm 0.00 in/hr0.0 mm/hr 0.00 in0.0 mm
01:22 PM 59.0°F15.0°C 46.0°F7.8°C 62% 6.0 mph WSW9.7 kmh WSW 10.3 mph16.6 kmh 30.05 in1017.6 mb 0.00 in0.0 mm 0.00 in/hr0.0 mm/hr 0.00 in0.0 mm
01:27 PM 59.0°F15.0°C 46.0°F7.8°C 62% 7.1 mph W11.4 kmh W 9.4 mph15.1 kmh 30.05 in1017.6 mb 0.00 in0.0 mm 0.00 in/hr0.0 mm/hr 0.00 in0.0 mm
01:32 PM 59.2°F15.1°C 46.2°F7.9°C 62% 5.3 mph WNW8.5 kmh WNW 11.6 mph18.7 kmh 30.05 in1017.6 mb 0.00 in0.0 mm 0.00 in/hr0.0 mm/hr 0.00 in0.0 mm
01:37 PM 59.0°F15.0°C 46.0°F7.8°C 62% 8.7 mph W14.0 kmh W 11.6 mph18.7 kmh 30.05 in1017.6 mb 0.00 in0.0 mm 0.00 in/hr0.0 mm/hr 0.00 in0.0 mm
01:42 PM 58.9°F14.9°C 46.3°F7.9°C 63% 6.1 mph W9.8 kmh W 11.2 mph18.0 kmh 30.05 in1017.6 mb 0.00 in0.0 mm 0.00 in/hr0.0 mm/hr 0.00 in0.0 mm
01:47 PM 58.7°F14.8°C 46.5°F8.1°C 64% 7.3 mph WSW11.7 kmh WSW 11.2 mph18.0 kmh 30.05 in1017.6 mb 0.00 in0.0 mm 0.00 in/hr0.0 mm/hr 0.00 in0.0 mm
01:52 PM 58.3°F14.6°C 46.2°F7.9°C 64% 11.3 mph W18.2 kmh W 13.9 mph22.4 kmh 30.04 in1017.3 mb 0.00 in0.0 mm 0.00 in/hr0.0 mm/hr 0.00 in0.0 mm
01:57 PM 58.3°F14.6°C 46.2°F7.9°C 64% 8.7 mph WSW14.0 kmh WSW 13.9 mph22.4 kmh 30.04 in1017.3 mb 0.00 in0.0 mm 0.00 in/hr0.0 mm/hr 0.00 in0.0 mm
02:02 PM 58.3°F14.6°C 46.2°F7.9°C 64% 8.1 mph WSW13.0 kmh WSW 13.4 mph21.6 kmh 30.04 in1017.3 mb 0.00 in0.0 mm 0.00 in/hr0.0 mm/hr 0.00 in0.0 mm
02:07 PM 58.3°F14.6°C 46.2°F7.9°C 64% 7.8 mph W12.6 kmh W 13.4 mph21.6 kmh 30.04 in1017.3 mb 0.00 in0.0 mm 0.00 in/hr0.0 mm/hr 0.00 in0.0 mm
02:12 PM 58.0°F14.4°C 45.8°F7.7°C 64% 7.6 mph W12.2 kmh W 13.0 mph20.9 kmh 30.04 in1017.3 mb 0.00 in0.0 mm 0.00 in/hr0.0 mm/hr 0.00 in0.0 mm
02:17 PM 58.1°F14.5°C 46.0°F7.8°C 64% 9.0 mph WSW14.5 kmh WSW 13.0 mph20.9 kmh 30.04 in1017.3 mb 0.00 in0.0 mm 0.00 in/hr0.0 mm/hr 0.00 in0.0 mm
02:22 PM 58.3°F14.6°C 46.2°F7.9°C 64% 11.2 mph W18.0 kmh W 14.3 mph23.0 kmh 30.04 in1017.3 mb 0.00 in0.0 mm 0.00 in/hr0.0 mm/hr 0.00 in0.0 mm
02:27 PM 58.1°F14.5°C 46.0°F7.8°C 64% 9.1 mph WSW14.6 kmh WSW 14.3 mph23.0 kmh 30.03 in1016.9 mb 0.00 in0.0 mm 0.00 in/hr0.0 mm/hr 0.00 in0.0 mm
02:32 PM 58.1°F14.5°C 45.6°F7.6°C 63% 9.1 mph WSW14.6 kmh WSW 12.3 mph19.8 kmh 30.03 in1016.9 mb 0.00 in0.0 mm 0.00 in/hr0.0 mm/hr 0.00 in0.0 mm
02:37 PM 58.3°F14.6°C 45.7°F7.6°C 63% 8.5 mph W13.7 kmh W 12.1 mph19.5 kmh 30.03 in1016.9 mb 0.00 in0.0 mm 0.00 in/hr0.0 mm/hr 0.00 in0.0 mm
02:43 PM 58.5°F14.7°C 45.6°F7.6°C 62% 6.6 mph W10.6 kmh W 11.4 mph18.3 kmh 30.03 in1016.9 mb 0.00 in0.0 mm 0.00 in/hr0.0 mm/hr 0.00 in0.0 mm
02:48 PM 58.7°F14.8°C 45.7°F7.6°C 62% 5.6 mph WSW9.0 kmh WSW 10.3 mph16.6 kmh 30.02 in1016.6 mb 0.00 in0.0 mm 0.00 in/hr0.0 mm/hr 0.00 in0.0 mm
02:53 PM 58.9°F14.9°C 45.8°F7.7°C 62% 6.1 mph WSW9.8 kmh WSW 9.6 mph15.4 kmh 30.03 in1016.9 mb 0.00 in0.0 mm 0.00 in/hr0.0 mm/hr 0.00 in0.0 mm
02:58 PM 59.2°F15.1°C 46.2°F7.9°C 62% 8.3 mph WSW13.4 kmh WSW 9.8 mph15.8 kmh 30.02 in1016.6 mb 0.00 in0.0 mm 0.00 in/hr0.0 mm/hr 0.00 in0.0 mm
03:03 PM 59.0°F15.0°C 46.0°F7.8°C 62% 8.3 mph WSW13.4 kmh WSW 12.8 mph20.6 kmh 30.02 in1016.6 mb 0.00 in0.0 mm 0.00 in/hr0.0 mm/hr 0.00 in0.0 mm
03:08 PM 59.4°F15.2°C 46.4°F8.0°C 62% 5.6 mph WSW9.0 kmh WSW 12.8 mph20.6 kmh 30.02 in1016.6 mb 0.00 in0.0 mm 0.00 in/hr0.0 mm/hr 0.00 in0.0 mm
03:13 PM 60.1°F15.6°C 47.1°F8.4°C 62% 6.1 mph SW9.8 kmh SW 11.9 mph19.2 kmh 30.02 in1016.6 mb 0.00 in0.0 mm 0.00 in/hr0.0 mm/hr 0.00 in0.0 mm
03:18 PM 60.1°F15.6°C 46.7°F8.2°C 61% 6.3 mph WSW10.1 kmh WSW 8.9 mph14.3 kmh 30.02 in1016.6 mb 0.00 in0.0 mm 0.00 in/hr0.0 mm/hr 0.00 in0.0 mm
03:23 PM 60.3°F15.7°C 46.9°F8.3°C 61% 5.9 mph WSW9.5 kmh WSW 8.9 mph14.3 kmh 30.01 in1016.3 mb 0.00 in0.0 mm 0.00 in/hr0.0 mm/hr 0.00 in0.0 mm
03:28 PM 60.5°F15.8°C 46.2°F7.9°C 59% 12.1 mph SW19.5 kmh SW 14.8 mph23.8 kmh 30.02 in1016.6 mb 0.00 in0.0 mm 0.00 in/hr0.0 mm/hr 0.00 in0.0 mm
03:33 PM 60.1°F15.6°C 45.8°F7.7°C 59% 8.7 mph SW14.0 kmh SW 14.8 mph23.8 kmh 30.01 in1016.3 mb 0.00 in0.0 mm 0.00 in/hr0.0 mm/hr 0.00 in0.0 mm
03:38 PM 59.9°F15.5°C 46.1°F7.8°C 60% 6.3 mph SW10.1 kmh SW 14.3 mph23.0 kmh 30.01 in1016.3 mb 0.00 in0.0 mm 0.00 in/hr0.0 mm/hr 0.00 in0.0 mm
03:43 PM 60.8°F16.0°C 46.5°F8.1°C 59% 7.7 mph SW12.4 kmh SW 14.3 mph23.0 kmh 30.01 in1016.3 mb 0.00 in0.0 mm 0.00 in/hr0.0 mm/hr 0.00 in0.0 mm
03:48 PM 61.7°F16.5°C 45.8°F7.7°C 56% 5.2 mph SW8.4 kmh SW 11.6 mph18.7 kmh 30.01 in1016.3 mb 0.00 in0.0 mm 0.00 in/hr0.0 mm/hr 0.00 in0.0 mm
03:53 PM 62.5°F16.9°C 45.6°F7.6°C 54% 6.3 mph SW10.1 kmh SW 9.4 mph15.1 kmh 30.01 in1016.3 mb 0.00 in0.0 mm 0.00 in/hr0.0 mm/hr 0.00 in0.0 mm
03:58 PM 62.6°F17.0°C 45.2°F7.3°C 53% 4.0 mph SW6.4 kmh SW 7.8 mph12.6 kmh 30.01 in1016.3 mb 0.00 in0.0 mm 0.00 in/hr0.0 mm/hr 0.00 in0.0 mm
04:03 PM 62.3°F16.8°C 44.9°F7.2°C 53% 4.0 mph SW6.4 kmh SW 7.4 mph11.9 kmh 30.00 in1015.9 mb 0.00 in0.0 mm 0.00 in/hr0.0 mm/hr 0.00 in0.0 mm
04:08 PM 62.3°F16.8°C 45.4°F7.4°C 54% 3.3 mph SSW5.3 kmh SSW 6.0 mph9.7 kmh 30.00 in1015.9 mb 0.00 in0.0 mm 0.00 in/hr0.0 mm/hr 0.00 in0.0 mm
04:13 PM 62.3°F16.8°C 45.4°F7.4°C 54% 1.5 mph NW2.4 kmh NW 5.6 mph9.0 kmh 30.00 in1015.9 mb 0.00 in0.0 mm 0.00 in/hr0.0 mm/hr 0.00 in0.0 mm
04:18 PM 62.3°F16.8°C 43.9°F6.6°C 51% 9.3 mph W15.0 kmh W 12.8 mph20.6 kmh 30.00 in1015.9 mb 0.00 in0.0 mm 0.00 in/hr0.0 mm/hr 0.00 in0.0 mm
04:23 PM 62.3°F16.8°C 44.4°F6.9°C 52% 4.4 mph WSW7.1 kmh WSW 12.8 mph20.6 kmh 30.00 in1015.9 mb 0.00 in0.0 mm 0.00 in/hr0.0 mm/hr 0.00 in0.0 mm
04:28 PM 62.1°F16.7°C 44.2°F6.8°C 52% 5.7 mph WSW9.2 kmh WSW 8.7 mph14.0 kmh 30.00 in1015.9 mb 0.00 in0.0 mm 0.00 in/hr0.0 mm/hr 0.00 in0.0 mm
04:33 PM 62.3°F16.8°C 43.9°F6.6°C 51% 7.9 mph WSW12.7 kmh WSW 11.4 mph18.3 kmh 30.00 in1015.9 mb 0.00 in0.0 mm 0.00 in/hr0.0 mm/hr 0.00 in0.0 mm
04:38 PM 62.3°F16.8°C 43.9°F6.6°C 51% 7.1 mph WSW11.4 kmh WSW 11.4 mph18.3 kmh 30.00 in1015.9 mb 0.00 in0.0 mm 0.00 in/hr0.0 mm/hr 0.00 in0.0 mm
04:43 PM 62.3°F16.8°C 43.4°F6.3°C 50% 7.1 mph WSW11.4 kmh WSW 10.5 mph16.9 kmh 30.00 in1015.9 mb 0.00 in0.0 mm 0.00 in/hr0.0 mm/hr 0.00 in0.0 mm
04:48 PM 61.9°F16.6°C 44.1°F6.7°C 52% 2.0 mph N3.2 kmh N 10.5 mph16.9 kmh 30.00 in1015.9 mb 0.00 in0.0 mm 0.00 in/hr0.0 mm/hr 0.00 in0.0 mm
04:53 PM 61.6°F16.4°C 43.7°F6.5°C 52% 2.0 mph NW3.2 kmh NW 10.5 mph16.9 kmh 30.00 in1015.9 mb 0.00 in0.0 mm 0.00 in/hr0.0 mm/hr 0.00 in0.0 mm
04:58 PM 61.6°F16.4°C 43.7°F6.5°C 52% 4.5 mph WNW7.2 kmh WNW 6.9 mph11.1 kmh 30.00 in1015.9 mb 0.00 in0.0 mm 0.00 in/hr0.0 mm/hr 0.00 in0.0 mm
05:03 PM 61.6°F16.4°C 43.7°F6.5°C 52% 4.3 mph W6.9 kmh W 7.6 mph12.2 kmh 30.00 in1015.9 mb 0.00 in0.0 mm 0.00 in/hr0.0 mm/hr 0.00 in0.0 mm
05:08 PM 61.6°F16.4°C 43.7°F6.5°C 52% 2.7 mph SW4.3 kmh SW 7.6 mph12.2 kmh 30.00 in1015.9 mb 0.00 in0.0 mm 0.00 in/hr0.0 mm/hr 0.00 in0.0 mm
05:13 PM 61.6°F16.4°C 44.2°F6.8°C 53% 1.7 mph SW2.7 kmh SW 6.0 mph9.7 kmh 30.00 in1015.9 mb 0.00 in0.0 mm 0.00 in/hr0.0 mm/hr 0.00 in0.0 mm
05:18 PM 61.6°F16.4°C 44.2°F6.8°C 53% 2.3 mph SW3.7 kmh SW 5.1 mph8.2 kmh 30.00 in1015.9 mb 0.00 in0.0 mm 0.00 in/hr0.0 mm/hr 0.00 in0.0 mm
05:23 PM 61.7°F16.5°C 44.4°F6.9°C 53% 1.6 mph WSW2.6 kmh WSW 4.3 mph6.9 kmh 30.00 in1015.9 mb 0.00 in0.0 mm 0.00 in/hr0.0 mm/hr 0.00 in0.0 mm
05:28 PM 61.7°F16.5°C 43.4°F6.3°C 51% 6.8 mph W10.9 kmh W 11.9 mph19.2 kmh 30.00 in1015.9 mb 0.00 in0.0 mm 0.00 in/hr0.0 mm/hr 0.00 in0.0 mm
05:33 PM 61.0°F16.1°C 42.8°F6.0°C 51% 8.7 mph W14.0 kmh W 11.9 mph19.2 kmh 30.00 in1015.9 mb 0.00 in0.0 mm 0.00 in/hr0.0 mm/hr 0.00 in0.0 mm
05:38 PM 60.7°F15.9°C 42.5°F5.8°C 51% 6.3 mph W10.1 kmh W 13.6 mph21.9 kmh 30.00 in1015.9 mb 0.00 in0.0 mm 0.00 in/hr0.0 mm/hr 0.00 in0.0 mm
05:43 PM 60.3°F15.7°C 42.1°F5.6°C 51% 11.2 mph WSW18.0 kmh WSW 13.6 mph21.9 kmh 30.00 in1015.9 mb 0.00 in0.0 mm 0.00 in/hr0.0 mm/hr 0.00 in0.0 mm
05:48 PM 60.3°F15.7°C 41.7°F5.4°C 50% 11.5 mph W18.5 kmh W 14.1 mph22.7 kmh 30.00 in1015.9 mb 0.00 in0.0 mm 0.00 in/hr0.0 mm/hr 0.00 in0.0 mm
05:52 PM 60.1°F15.6°C 41.5°F5.3°C 50% 9.8 mph W15.8 kmh W 14.1 mph22.7 kmh 30.00 in1015.9 mb 0.00 in0.0 mm 0.00 in/hr0.0 mm/hr 0.00 in0.0 mm
05:57 PM 60.1°F15.6°C 40.9°F4.9°C 49% 8.1 mph WSW13.0 kmh WSW 14.1 mph22.7 kmh 30.00 in1015.9 mb 0.00 in0.0 mm 0.00 in/hr0.0 mm/hr 0.00 in0.0 mm
06:02 PM 59.9°F15.5°C 41.3°F5.2°C 50% 9.8 mph W15.8 kmh W 14.1 mph22.7 kmh 30.00 in1015.9 mb 0.00 in0.0 mm 0.00 in/hr0.0 mm/hr 0.00 in0.0 mm
06:07 PM 59.6°F15.3°C 41.5°F5.3°C 51% 8.7 mph W14.0 kmh W 14.1 mph22.7 kmh 30.00 in1015.9 mb 0.00 in0.0 mm 0.00 in/hr0.0 mm/hr 0.00 in0.0 mm
06:12 PM 59.2°F15.1°C 40.7°F4.8°C 50% 8.5 mph W13.7 kmh W 13.4 mph21.6 kmh 30.00 in1015.9 mb 0.00 in0.0 mm 0.00 in/hr0.0 mm/hr 0.00 in0.0 mm
06:17 PM 58.7°F14.8°C 40.7°F4.8°C 51% 8.5 mph W13.7 kmh W 12.5 mph20.1 kmh 30.00 in1015.9 mb 0.00 in0.0 mm 0.00 in/hr0.0 mm/hr 0.00 in0.0 mm
06:22 PM 58.5°F14.7°C 41.0°F5.0°C 52% 7.4 mph WNW11.9 kmh WNW 12.5 mph20.1 kmh 30.01 in1016.3 mb 0.00 in0.0 mm 0.00 in/hr0.0 mm/hr 0.00 in0.0 mm
06:27 PM 58.3°F14.6°C 41.2°F5.1°C 53% 6.8 mph WNW10.9 kmh WNW 10.5 mph16.9 kmh 30.00 in1015.9 mb 0.00 in0.0 mm 0.00 in/hr0.0 mm/hr 0.00 in0.0 mm
06:32 PM 58.3°F14.6°C 41.2°F5.1°C 53% 6.2 mph WSW10.0 kmh WSW 12.1 mph19.5 kmh 30.01 in1016.3 mb 0.00 in0.0 mm 0.00 in/hr0.0 mm/hr 0.00 in0.0 mm
06:37 PM 58.3°F14.6°C 41.2°F5.1°C 53% 9.1 mph W14.6 kmh W 13.4 mph21.6 kmh 30.01 in1016.3 mb 0.00 in0.0 mm 0.00 in/hr0.0 mm/hr 0.00 in0.0 mm
06:43 PM 57.8°F14.3°C 40.8°F4.9°C 53% 9.7 mph W15.6 kmh W 13.4 mph21.6 kmh 30.01 in1016.3 mb 0.00 in0.0 mm 0.00 in/hr0.0 mm/hr 0.00 in0.0 mm
06:48 PM 57.2°F14.0°C 40.8°F4.9°C 54% 5.8 mph W9.3 kmh W 12.5 mph20.1 kmh 30.01 in1016.3 mb 0.00 in0.0 mm 0.00 in/hr0.0 mm/hr 0.00 in0.0 mm
06:53 PM 57.2°F14.0°C 41.2°F5.1°C 55% 4.8 mph NW7.7 kmh NW 9.8 mph15.8 kmh 30.01 in1016.3 mb 0.00 in0.0 mm 0.00 in/hr0.0 mm/hr 0.00 in0.0 mm
06:58 PM 56.9°F13.8°C 40.9°F4.9°C 55% 5.9 mph W9.5 kmh W 9.8 mph15.8 kmh 30.01 in1016.3 mb 0.00 in0.0 mm 0.00 in/hr0.0 mm/hr 0.00 in0.0 mm
07:03 PM 56.7°F13.7°C 41.1°F5.1°C 56% 7.8 mph WSW12.6 kmh WSW 9.4 mph15.1 kmh 30.01 in1016.3 mb 0.00 in0.0 mm 0.00 in/hr0.0 mm/hr 0.00 in0.0 mm
07:08 PM 56.5°F13.6°C 41.4°F5.2°C 57% 4.4 mph W7.1 kmh W 9.4 mph15.1 kmh 30.01 in1016.3 mb 0.00 in0.0 mm 0.00 in/hr0.0 mm/hr 0.00 in0.0 mm
07:13 PM 56.2°F13.4°C 41.0°F5.0°C 57% 4.1 mph W6.6 kmh W 7.4 mph11.9 kmh 30.01 in1016.3 mb 0.00 in0.0 mm 0.00 in/hr0.0 mm/hr 0.00 in0.0 mm
07:18 PM 55.8°F13.2°C 41.2°F5.1°C 58% 3.7 mph W6.0 kmh W 8.3 mph13.4 kmh 30.01 in1016.3 mb 0.00 in0.0 mm 0.00 in/hr0.0 mm/hr 0.00 in0.0 mm
07:23 PM 55.8°F13.2°C 41.2°F5.1°C 58% 6.0 mph W9.7 kmh W 8.5 mph13.7 kmh 30.01 in1016.3 mb 0.00 in0.0 mm 0.00 in/hr0.0 mm/hr 0.00 in0.0 mm
07:28 PM 55.6°F13.1°C 41.5°F5.3°C 59% 4.0 mph WNW6.4 kmh WNW 8.5 mph13.7 kmh 30.01 in1016.3 mb 0.00 in0.0 mm 0.00 in/hr0.0 mm/hr 0.00 in0.0 mm
07:33 PM 55.4°F13.0°C 41.3°F5.2°C 59% 6.0 mph WSW9.7 kmh WSW 7.6 mph12.2 kmh 30.01 in1016.3 mb 0.00 in0.0 mm 0.00 in/hr0.0 mm/hr 0.00 in0.0 mm
07:38 PM 55.3°F12.9°C 41.1°F5.1°C 59% 6.7 mph WSW10.8 kmh WSW 9.2 mph14.8 kmh 30.01 in1016.3 mb 0.00 in0.0 mm 0.00 in/hr0.0 mm/hr 0.00 in0.0 mm
07:43 PM 55.1°F12.8°C 41.0°F5.0°C 59% 3.8 mph WSW6.1 kmh WSW 9.2 mph14.8 kmh 30.01 in1016.3 mb 0.00 in0.0 mm 0.00 in/hr0.0 mm/hr 0.00 in0.0 mm
07:48 PM 55.1°F12.8°C 41.4°F5.2°C 60% 5.1 mph W8.2 kmh W 7.4 mph11.9 kmh 30.01 in1016.3 mb 0.00 in0.0 mm 0.00 in/hr0.0 mm/hr 0.00 in0.0 mm
07:53 PM 54.9°F12.7°C 41.3°F5.2°C 60% 5.2 mph WSW8.4 kmh WSW 8.5 mph13.7 kmh 30.01 in1016.3 mb 0.00 in0.0 mm 0.00 in/hr0.0 mm/hr 0.00 in0.0 mm
07:58 PM 54.7°F12.6°C 41.1°F5.1°C 60% 7.0 mph WSW11.3 kmh WSW 8.7 mph14.0 kmh 30.01 in1016.3 mb 0.00 in0.0 mm 0.00 in/hr0.0 mm/hr 0.00 in0.0 mm
08:03 PM 54.4°F12.4°C 40.8°F4.9°C 60% 6.0 mph WSW9.7 kmh WSW 8.7 mph14.0 kmh 30.01 in1016.3 mb 0.00 in0.0 mm 0.00 in/hr0.0 mm/hr 0.00 in0.0 mm
08:08 PM 54.4°F12.4°C 41.2°F5.1°C 61% 5.8 mph WSW9.3 kmh WSW 8.9 mph14.3 kmh 30.01 in1016.3 mb 0.00 in0.0 mm 0.00 in/hr0.0 mm/hr 0.00 in0.0 mm
08:13 PM 54.0°F12.2°C 40.9°F4.9°C 61% 5.9 mph WSW9.5 kmh WSW 8.9 mph14.3 kmh 30.02 in1016.6 mb 0.00 in0.0 mm 0.00 in/hr0.0 mm/hr 0.00 in0.0 mm
08:18 PM 53.8°F12.1°C 40.3°F4.6°C 60% 8.9 mph WSW14.3 kmh WSW 11.4 mph18.3 kmh 30.01 in1016.3 mb 0.00 in0.0 mm 0.00 in/hr0.0 mm/hr 0.00 in0.0 mm
08:23 PM 53.6°F12.0°C 40.1°F4.5°C 60% 8.2 mph WSW13.2 kmh WSW 12.1 mph19.5 kmh 30.01 in1016.3 mb 0.00 in0.0 mm 0.00 in/hr0.0 mm/hr 0.00 in0.0 mm
08:28 PM 53.3°F11.8°C 39.8°F4.3°C 60% 9.9 mph WSW15.9 kmh WSW 12.3 mph19.8 kmh 30.01 in1016.3 mb 0.00 in0.0 mm 0.00 in/hr0.0 mm/hr 0.00 in0.0 mm
08:33 PM 53.1°F11.7°C 39.6°F4.2°C 60% 8.8 mph WSW14.2 kmh WSW 12.3 mph19.8 kmh 30.01 in1016.3 mb 0.00 in0.0 mm 0.00 in/hr0.0 mm/hr 0.00 in0.0 mm
08:38 PM 52.9°F11.6°C 39.8°F4.3°C 61% 7.7 mph WSW12.4 kmh WSW 12.1 mph19.5 kmh 30.01 in1016.3 mb 0.00 in0.0 mm 0.00 in/hr0.0 mm/hr 0.00 in0.0 mm
08:43 PM 52.6°F11.4°C 39.5°F4.2°C 61% 6.0 mph W9.7 kmh W 9.2 mph14.8 kmh 30.02 in1016.6 mb 0.00 in0.0 mm 0.00 in/hr0.0 mm/hr 0.00 in0.0 mm
08:48 PM 52.6°F11.4°C 39.5°F4.2°C 61% 2.9 mph WNW4.7 kmh WNW 9.2 mph14.8 kmh 30.02 in1016.6 mb 0.00 in0.0 mm 0.00 in/hr0.0 mm/hr 0.00 in0.0 mm
08:53 PM 52.2°F11.2°C 39.2°F4.0°C 61% 4.2 mph W6.8 kmh W 6.9 mph11.1 kmh 30.03 in1016.9 mb 0.00 in0.0 mm 0.00 in/hr0.0 mm/hr 0.00 in0.0 mm
08:58 PM 52.2°F11.2°C 39.5°F4.2°C 62% 3.3 mph WSW5.3 kmh WSW 7.6 mph12.2 kmh 30.03 in1016.9 mb 0.00 in0.0 mm 0.00 in/hr0.0 mm/hr 0.00 in0.0 mm
09:03 PM 51.8°F11.0°C 39.2°F4.0°C 62% 3.9 mph WSW6.3 kmh WSW 7.6 mph12.2 kmh 30.03 in1016.9 mb 0.00 in0.0 mm 0.00 in/hr0.0 mm/hr 0.00 in0.0 mm
09:08 PM 51.7°F10.9°C 39.0°F3.9°C 62% 6.0 mph WSW9.7 kmh WSW 7.2 mph11.6 kmh 30.03 in1016.9 mb 0.00 in0.0 mm 0.00 in/hr0.0 mm/hr 0.00 in0.0 mm
09:13 PM 51.5°F10.8°C 38.9°F3.8°C 62% 5.8 mph WSW9.3 kmh WSW 7.4 mph11.9 kmh 30.02 in1016.6 mb 0.00 in0.0 mm 0.00 in/hr0.0 mm/hr 0.00 in0.0 mm
09:18 PM 51.3°F10.7°C 38.7°F3.7°C 62% 5.9 mph WSW9.5 kmh WSW 8.5 mph13.7 kmh 30.03 in1016.9 mb 0.00 in0.0 mm 0.00 in/hr0.0 mm/hr 0.00 in0.0 mm
09:23 PM 51.1°F10.6°C 38.9°F3.8°C 63% 5.0 mph WSW8.0 kmh WSW 8.5 mph13.7 kmh 30.03 in1016.9 mb 0.00 in0.0 mm 0.00 in/hr0.0 mm/hr 0.00 in0.0 mm
09:28 PM 50.9°F10.5°C 38.7°F3.7°C 63% 4.3 mph WSW6.9 kmh WSW 6.9 mph11.1 kmh 30.03 in1016.9 mb 0.00 in0.0 mm 0.00 in/hr0.0 mm/hr 0.00 in0.0 mm
09:33 PM 50.8°F10.4°C 38.6°F3.7°C 63% 3.0 mph WSW4.8 kmh WSW 6.5 mph10.5 kmh 30.03 in1016.9 mb 0.00 in0.0 mm 0.00 in/hr0.0 mm/hr 0.00 in0.0 mm
09:38 PM 50.8°F10.4°C 38.6°F3.7°C 63% 1.9 mph W3.1 kmh W 5.4 mph8.7 kmh 30.03 in1016.9 mb 0.00 in0.0 mm 0.00 in/hr0.0 mm/hr 0.00 in0.0 mm
09:43 PM 50.6°F10.3°C 38.4°F3.6°C 63% 2.0 mph WSW3.2 kmh WSW 4.5 mph7.2 kmh 30.03 in1016.9 mb 0.00 in0.0 mm 0.00 in/hr0.0 mm/hr 0.00 in0.0 mm
09:49 PM 50.4°F10.2°C 38.3°F3.5°C 63% 2.0 mph WSW3.2 kmh WSW 4.5 mph7.2 kmh 30.03 in1016.9 mb 0.00 in0.0 mm 0.00 in/hr0.0 mm/hr 0.00 in0.0 mm
09:54 PM 50.2°F10.1°C 38.1°F3.4°C 63% 0.5 mph WNW0.8 kmh WNW 3.6 mph5.8 kmh 30.03 in1016.9 mb 0.00 in0.0 mm 0.00 in/hr0.0 mm/hr 0.00 in0.0 mm
09:59 PM 50.0°F10.0°C 37.9°F3.3°C 63% 0.8 mph WNW1.3 kmh WNW 2.0 mph3.2 kmh 30.03 in1016.9 mb 0.00 in0.0 mm 0.00 in/hr0.0 mm/hr 0.00 in0.0 mm
10:04 PM 49.7°F9.8°C 37.5°F3.1°C 63% 0.7 mph WSW1.1 kmh WSW 1.3 mph2.1 kmh 30.03 in1016.9 mb 0.00 in0.0 mm 0.00 in/hr0.0 mm/hr 0.00 in0.0 mm
10:09 PM 49.3°F9.6°C 37.6°F3.1°C 64% 1.4 mph W2.3 kmh W 1.8 mph2.9 kmh 30.03 in1016.9 mb 0.00 in0.0 mm 0.00 in/hr0.0 mm/hr 0.00 in0.0 mm
10:14 PM 49.3°F9.6°C 37.6°F3.1°C 64% 2.0 mph WSW3.2 kmh WSW 3.4 mph5.5 kmh 30.03 in1016.9 mb 0.00 in0.0 mm 0.00 in/hr0.0 mm/hr 0.00 in0.0 mm
10:19 PM 49.1°F9.5°C 37.4°F3.0°C 64% 1.6 mph WSW2.6 kmh WSW 3.4 mph5.5 kmh 30.03 in1016.9 mb 0.00 in0.0 mm 0.00 in/hr0.0 mm/hr 0.00 in0.0 mm
10:24 PM 49.0°F9.4°C 37.3°F2.9°C 64% 0.4 mph WSW0.6 kmh WSW 2.2 mph3.5 kmh 30.03 in1016.9 mb 0.00 in0.0 mm 0.00 in/hr0.0 mm/hr 0.00 in0.0 mm
10:29 PM 48.8°F9.3°C 36.7°F2.6°C 63% Calm Calm 1.3 mph2.1 kmh 30.03 in1016.9 mb 0.00 in0.0 mm 0.00 in/hr0.0 mm/hr 0.00 in0.0 mm
10:34 PM 48.6°F9.2°C 36.5°F2.5°C 63% 0.2 mph NW0.3 kmh NW 1.1 mph1.8 kmh 30.03 in1016.9 mb 0.00 in0.0 mm 0.00 in/hr0.0 mm/hr 0.00 in0.0 mm
10:39 PM 48.6°F9.2°C 36.5°F2.5°C 63% 0.8 mph N1.3 kmh N 1.1 mph1.8 kmh 30.03 in1016.9 mb 0.00 in0.0 mm 0.00 in/hr0.0 mm/hr 0.00 in0.0 mm
10:44 PM 48.4°F9.1°C 36.4°F2.4°C 63% 0.4 mph NNE0.6 kmh NNE 1.1 mph1.8 kmh 30.03 in1016.9 mb 0.00 in0.0 mm 0.00 in/hr0.0 mm/hr 0.00 in0.0 mm
10:49 PM 48.1°F8.9°C 36.1°F2.3°C 63% 0.2 mph NNE0.3 kmh NNE 0.9 mph1.4 kmh 30.03 in1016.9 mb 0.00 in0.0 mm 0.00 in/hr0.0 mm/hr 0.00 in0.0 mm
10:53 PM 47.9°F8.8°C 36.3°F2.4°C 64% 0.7 mph NW1.1 kmh NW 1.3 mph2.1 kmh 30.03 in1016.9 mb 0.00 in0.0 mm 0.00 in/hr0.0 mm/hr 0.00 in0.0 mm
10:58 PM 47.9°F8.8°C 36.3°F2.4°C 64% 0.9 mph 1.4 kmh 1.3 mph2.1 kmh 30.03 in1016.9 mb 0.00 in0.0 mm 0.00 in/hr0.0 mm/hr 0.00 in0.0 mm
11:03 PM 47.7°F8.7°C 36.1°F2.3°C 64% 0.2 mph 0.3 kmh 1.3 mph2.1 kmh 30.03 in1016.9 mb 0.00 in0.0 mm 0.00 in/hr0.0 mm/hr 0.00 in0.0 mm
11:08 PM 47.7°F8.7°C 36.1°F2.3°C 64% 0.4 mph 0.6 kmh 0.4 mph0.6 kmh 30.03 in1016.9 mb 0.00 in0.0 mm 0.00 in/hr0.0 mm/hr 0.00 in0.0 mm
11:13 PM 47.7°F8.7°C 36.1°F2.3°C 64% 0.9 mph W1.4 kmh W 2.5 mph4.0 kmh 30.03 in1016.9 mb 0.00 in0.0 mm 0.00 in/hr0.0 mm/hr 0.00 in0.0 mm
11:18 PM 47.7°F8.7°C 36.1°F2.3°C 64% 0.6 mph NW1.0 kmh NW 2.5 mph4.0 kmh 30.03 in1016.9 mb 0.00 in0.0 mm 0.00 in/hr0.0 mm/hr 0.00 in0.0 mm
11:23 PM 47.9°F8.8°C 36.3°F2.4°C 64% 0.5 mph NW0.8 kmh NW 1.8 mph2.9 kmh 30.03 in1016.9 mb 0.00 in0.0 mm 0.00 in/hr0.0 mm/hr 0.00 in0.0 mm
11:28 PM 47.7°F8.7°C 35.7°F2.1°C 63% 0.6 mph N1.0 kmh N 1.8 mph2.9 kmh 30.03 in1016.9 mb 0.00 in0.0 mm 0.00 in/hr0.0 mm/hr 0.00 in0.0 mm
11:33 PM 47.5°F8.6°C 35.6°F2.0°C 63% 0.3 mph 0.5 kmh 0.9 mph1.4 kmh 30.04 in1017.3 mb 0.00 in0.0 mm 0.00 in/hr0.0 mm/hr 0.00 in0.0 mm
11:38 PM 47.3°F8.5°C 35.4°F1.9°C 63% 0.9 mph ESE1.4 kmh ESE 1.3 mph2.1 kmh 30.04 in1017.3 mb 0.00 in0.0 mm 0.00 in/hr0.0 mm/hr 0.00 in0.0 mm
11:43 PM 47.0°F8.3°C 35.4°F1.9°C 64% 0.3 mph ESE0.5 kmh ESE 1.3 mph2.1 kmh 30.04 in1017.3 mb 0.00 in0.0 mm 0.00 in/hr0.0 mm/hr 0.00 in0.0 mm
11:48 PM 46.6°F8.1°C 34.7°F1.5°C 63% 0.4 mph WSW0.6 kmh WSW 1.1 mph1.8 kmh 30.04 in1017.3 mb 0.00 in0.0 mm 0.00 in/hr0.0 mm/hr 0.00 in0.0 mm
11:53 PM 46.4°F8.0°C 34.9°F1.6°C 64% Calm Calm 0.4 mph0.6 kmh 30.04 in1017.3 mb 0.00 in0.0 mm 0.00 in/hr0.0 mm/hr 0.00 in0.0 mm
11:58 PM 46.1°F7.8°C 34.6°F1.4°C 64% Calm Calm 0.2 mph0.3 kmh 30.04 in1017.3 mb 0.00 in0.0 mm 0.00 in/hr0.0 mm/hr 0.00 in0.0 mm